createdAt,value
2022-11-26T00:01:22.156Z,4.82
2022-11-26T00:03:49.753Z,5.45
2022-11-26T00:06:33.433Z,4.40
2022-11-26T00:09:00.952Z,5.45
2022-11-26T00:11:27.755Z,5.50
2022-11-26T00:16:21.113Z,4.35
2022-11-26T00:18:47.920Z,3.78
2022-11-26T00:21:23.639Z,3.85
2022-11-26T00:23:51.552Z,3.53
2022-11-26T00:26:24.219Z,4.00
2022-11-26T00:28:56.807Z,3.17
2022-11-26T00:31:24.180Z,3.47
2022-11-26T00:33:51.212Z,3.08
2022-11-26T00:36:29.037Z,2.78
2022-11-26T00:39:11.139Z,2.90
2022-11-26T00:41:39.362Z,2.88
2022-11-26T00:44:18.096Z,2.90
2022-11-26T00:46:44.953Z,3.15
2022-11-26T00:51:38.640Z,3.50
2022-11-26T00:54:06.600Z,3.47
2022-11-26T00:56:37.779Z,2.60
2022-11-26T00:59:05.566Z,3.22
2022-11-26T01:01:32.838Z,2.53
2022-11-26T01:03:59.711Z,3.35
2022-11-26T01:08:57.306Z,3.00
2022-11-26T01:11:24.859Z,2.80
2022-11-26T01:13:53.647Z,2.60
2022-11-26T01:16:29.511Z,2.20
2022-11-26T01:18:58.755Z,2.13
2022-11-26T01:21:27.940Z,2.15
2022-11-26T01:23:54.749Z,1.85
2022-11-26T01:28:50.345Z,1.90
2022-11-26T01:31:23.330Z,2.03
2022-11-26T01:33:50.098Z,1.80
2022-11-26T01:38:55.767Z,1.90
2022-11-26T01:41:47.313Z,1.70
2022-11-26T01:44:22.005Z,1.42
2022-11-26T01:46:50.259Z,3.42
2022-11-26T01:49:20.252Z,1.70
2022-11-26T01:51:51.107Z,1.60
2022-11-26T01:54:18.074Z,2.38
2022-11-26T01:56:53.685Z,1.98
2022-11-26T01:59:32.879Z,1.70
2022-11-26T02:02:00.811Z,1.70
2022-11-26T02:04:29.747Z,1.85
2022-11-26T02:06:57.329Z,2.08
2022-11-26T02:09:26.288Z,2.05
2022-11-26T02:11:53.396Z,1.75
2022-11-26T02:14:25.296Z,2.10
2022-11-26T02:17:12.536Z,1.90
2022-11-26T02:19:57.037Z,1.85
2022-11-26T02:22:45.361Z,2.42
2022-11-26T02:25:33.363Z,1.98
2022-11-26T02:28:19.913Z,1.88
2022-11-26T02:30:52.291Z,2.25
2022-11-26T02:33:34.711Z,2.13
2022-11-26T02:36:41.926Z,2.22
2022-11-26T02:39:12.725Z,1.95
2022-11-26T02:41:45.255Z,2.00
2022-11-26T02:44:14.267Z,2.38
2022-11-26T02:46:42.835Z,3.05
2022-11-26T02:49:12.457Z,2.72
2022-11-26T02:51:40.614Z,2.47
2022-11-26T02:54:09.091Z,2.22
2022-11-26T02:56:37.031Z,2.50
2022-11-26T02:59:05.576Z,2.67
2022-11-26T03:01:49.568Z,2.88
2022-11-26T03:04:24.305Z,2.80
2022-11-26T03:06:53.000Z,3.80
2022-11-26T03:09:22.820Z,2.30
2022-11-26T03:11:49.971Z,2.35
2022-11-26T03:14:16.650Z,2.28
2022-11-26T03:16:43.461Z,2.72
2022-11-26T03:19:10.170Z,2.30
2022-11-26T03:21:36.897Z,2.90
2022-11-26T03:26:30.368Z,2.00
2022-11-26T03:31:23.766Z,2.72
2022-11-26T03:36:17.110Z,2.00
2022-11-26T03:38:43.795Z,2.60
2022-11-26T03:43:37.261Z,2.33
2022-11-26T03:48:30.801Z,2.15
2022-11-26T03:50:57.569Z,1.75
2022-11-26T03:55:51.002Z,1.70
2022-11-26T03:58:17.658Z,1.55
2022-11-26T04:00:44.501Z,2.20
2022-11-26T04:03:11.431Z,1.77
2022-11-26T04:05:38.178Z,1.73
2022-11-26T04:08:04.991Z,2.22
2022-11-26T04:10:31.824Z,1.95
2022-11-26T04:15:25.134Z,1.92
2022-11-26T04:20:18.629Z,2.00
2022-11-26T04:25:12.033Z,1.70
2022-11-26T04:27:38.727Z,2.13
2022-11-26T04:32:33.262Z,1.50
2022-11-26T04:34:59.988Z,1.85
2022-11-26T04:37:26.624Z,2.13
2022-11-26T04:39:53.374Z,2.05
2022-11-26T04:44:46.935Z,2.05
2022-11-26T04:47:13.818Z,2.75
2022-11-26T04:49:40.700Z,1.90
2022-11-26T04:54:34.047Z,2.40
2022-11-26T04:57:00.744Z,1.55
2022-11-26T04:59:27.525Z,2.28
2022-11-26T05:04:20.791Z,3.00
2022-11-26T05:06:47.651Z,1.80
2022-11-26T05:09:14.305Z,1.77
2022-11-26T05:11:40.939Z,1.58
2022-11-26T05:14:07.888Z,2.25
2022-11-26T05:16:34.856Z,2.00
2022-11-26T05:19:01.638Z,2.00
2022-11-26T05:23:54.918Z,2.67
2022-11-26T05:26:21.630Z,2.30
2022-11-26T05:31:15.088Z,2.10
2022-11-26T05:36:08.741Z,2.72
2022-11-26T05:38:35.480Z,1.70
2022-11-26T05:43:28.809Z,2.60
2022-11-26T05:48:22.147Z,2.83
2022-11-26T05:53:21.232Z,2.50
2022-11-26T05:55:48.036Z,3.22
2022-11-26T06:00:41.581Z,3.00
2022-11-26T06:03:08.576Z,2.97
2022-11-26T06:05:35.400Z,3.25
2022-11-26T06:10:28.917Z,3.13
2022-11-26T06:15:22.456Z,3.10
2022-11-26T06:20:17.087Z,3.30
2022-11-26T06:22:44.376Z,3.72
2022-11-26T06:25:13.722Z,4.63
2022-11-26T06:27:40.937Z,4.05
2022-11-26T06:30:09.668Z,4.47
2022-11-26T06:32:36.440Z,4.20
2022-11-26T06:37:29.848Z,3.50
2022-11-26T06:42:23.245Z,4.50
2022-11-26T06:47:16.580Z,4.35
2022-11-26T06:52:09.939Z,3.72
2022-11-26T06:57:04.029Z,3.05
2022-11-26T07:01:58.088Z,3.47
2022-11-26T07:04:24.898Z,4.18
2022-11-26T07:09:18.353Z,4.18
2022-11-26T07:14:11.909Z,2.60
2022-11-26T07:19:05.325Z,3.38
2022-11-26T07:21:32.378Z,4.15
2022-11-26T07:23:59.433Z,3.30
2022-11-26T07:26:26.194Z,3.35
2022-11-26T07:31:21.948Z,3.65
2022-11-26T07:33:49.206Z,2.97
2022-11-26T07:36:19.591Z,2.70
2022-11-26T07:38:46.853Z,2.78
2022-11-26T07:41:16.365Z,3.40
2022-11-26T07:43:43.561Z,3.35
2022-11-26T07:46:12.280Z,3.58
2022-11-26T07:48:40.240Z,3.72
2022-11-26T07:51:08.463Z,4.07
2022-11-26T07:53:36.436Z,3.83
2022-11-26T07:56:06.636Z,2.85
2022-11-26T07:58:33.664Z,3.22
2022-11-26T08:01:11.503Z,3.30
2022-11-26T08:03:45.817Z,3.67
2022-11-26T08:06:16.043Z,2.75
2022-11-26T08:08:42.918Z,2.88
2022-11-26T08:13:41.781Z,1.98
2022-11-26T08:16:08.859Z,2.13
2022-11-26T08:18:35.844Z,2.60
2022-11-26T08:21:02.916Z,2.53
2022-11-26T08:23:30.737Z,2.97
2022-11-26T08:28:46.371Z,2.25
2022-11-26T08:31:15.337Z,2.50
2022-11-26T08:33:42.292Z,3.08
2022-11-26T08:36:09.771Z,3.10
2022-11-26T08:38:37.262Z,2.20
2022-11-26T08:41:07.105Z,3.08
2022-11-26T08:46:25.876Z,2.63
2022-11-26T08:48:55.462Z,2.40
2022-11-26T08:51:23.112Z,2.42
2022-11-26T08:53:50.008Z,2.40
2022-11-26T08:56:16.722Z,2.40
2022-11-26T08:58:48.623Z,2.50
2022-11-26T09:01:17.148Z,3.00
2022-11-26T09:03:44.318Z,2.53
2022-11-26T09:06:11.640Z,2.88
2022-11-26T09:08:57.383Z,2.30
2022-11-26T09:11:25.964Z,2.38
2022-11-26T09:13:53.436Z,2.85
2022-11-26T09:16:24.385Z,2.00
2022-11-26T09:18:52.399Z,3.13
2022-11-26T09:21:19.895Z,2.63
2022-11-26T09:23:46.818Z,2.83
2022-11-26T09:26:13.697Z,2.35
2022-11-26T09:28:40.464Z,3.45
2022-11-26T09:31:07.084Z,2.92
2022-11-26T09:33:33.813Z,2.70
2022-11-26T09:36:09.368Z,2.78
2022-11-26T09:38:36.933Z,3.38
2022-11-26T09:41:19.839Z,2.78
2022-11-26T09:43:55.458Z,2.35
2022-11-26T09:47:10.626Z,4.30
2022-11-26T09:49:58.674Z,3.55
2022-11-26T09:52:38.477Z,4.05
2022-11-26T09:55:22.176Z,4.65
2022-11-26T09:58:01.491Z,5.03
2022-11-26T10:00:43.988Z,4.97
2022-11-26T10:03:35.568Z,4.97
2022-11-26T10:06:23.699Z,4.60
2022-11-26T10:09:22.620Z,4.88
2022-11-26T10:12:03.975Z,4.80
2022-11-26T10:14:52.339Z,4.32
2022-11-26T10:17:34.101Z,4.78
2022-11-26T10:20:00.788Z,4.97
2022-11-26T10:22:37.576Z,4.97
2022-11-26T10:25:16.156Z,4.68
2022-11-26T10:27:43.041Z,4.65
2022-11-26T10:32:46.232Z,7.40
2022-11-26T10:35:35.715Z,7.55
2022-11-26T10:38:02.718Z,5.93
2022-11-26T10:40:31.093Z,7.35
2022-11-26T10:43:14.037Z,6.35
2022-11-26T10:45:42.411Z,6.45
2022-11-26T10:48:21.875Z,5.50
2022-11-26T10:51:28.256Z,5.78
2022-11-26T10:54:04.278Z,5.00
2022-11-26T10:56:47.725Z,4.18
2022-11-26T10:59:28.532Z,5.72
2022-11-26T11:02:00.989Z,4.75
2022-11-26T11:04:32.150Z,5.88
2022-11-26T11:06:59.079Z,5.10
2022-11-26T11:12:16.159Z,5.50
2022-11-26T11:14:46.667Z,5.13
2022-11-26T11:17:34.853Z,5.03
2022-11-26T11:22:34.827Z,4.70
2022-11-26T11:25:01.635Z,4.63
2022-11-26T11:30:04.668Z,6.00
2022-11-26T11:32:40.409Z,5.68
2022-11-26T11:35:21.635Z,5.95
2022-11-26T11:37:54.383Z,5.40
2022-11-26T11:40:27.246Z,5.13
2022-11-26T11:43:03.930Z,5.03
2022-11-26T11:45:40.652Z,5.28
2022-11-26T11:48:16.586Z,4.65
2022-11-26T11:50:50.132Z,4.30
2022-11-26T11:53:33.242Z,4.28
2022-11-26T11:56:18.201Z,4.32
2022-11-26T11:59:02.640Z,4.07
2022-11-26T12:02:00.977Z,4.75
2022-11-26T12:05:12.837Z,3.95
2022-11-26T12:07:47.543Z,4.85
2022-11-26T12:10:29.724Z,5.13
2022-11-26T12:13:01.407Z,5.68
2022-11-26T12:15:35.715Z,5.03
2022-11-26T12:18:05.176Z,5.47
2022-11-26T12:20:39.965Z,4.60
2022-11-26T12:24:17.222Z,6.05
2022-11-26T12:26:54.740Z,4.72
2022-11-26T12:29:44.080Z,5.68
2022-11-26T12:32:25.860Z,5.60
2022-11-26T12:34:57.308Z,5.78
2022-11-26T12:37:42.077Z,5.30
2022-11-26T12:40:40.717Z,5.13
2022-11-26T12:43:24.301Z,5.20
2022-11-26T12:46:06.048Z,5.47
2022-11-26T12:48:58.270Z,3.85
2022-11-26T12:51:28.784Z,4.05
2022-11-26T12:54:16.043Z,5.32
2022-11-26T12:56:58.571Z,4.63
2022-11-26T12:59:40.766Z,4.22
2022-11-26T13:02:25.091Z,3.92
2022-11-26T13:04:53.038Z,4.47
2022-11-26T13:07:44.642Z,4.22
2022-11-26T13:10:20.379Z,5.05
2022-11-26T13:13:12.491Z,4.50
2022-11-26T13:15:44.541Z,3.80
2022-11-26T13:18:23.871Z,3.30
2022-11-26T13:21:01.853Z,3.80
2022-11-26T13:23:34.676Z,3.22
2022-11-26T13:26:28.727Z,3.35
2022-11-26T13:29:23.301Z,2.85
2022-11-26T13:31:59.653Z,3.75
2022-11-26T13:35:00.539Z,3.38
2022-11-26T13:38:09.033Z,3.42
2022-11-26T13:41:03.512Z,4.22
2022-11-26T13:43:53.482Z,3.45
2022-11-26T13:46:28.728Z,3.83
2022-11-26T13:48:59.772Z,4.20
2022-11-26T13:51:49.513Z,3.63
2022-11-26T13:54:25.099Z,3.55
2022-11-26T13:57:01.346Z,3.80
2022-11-26T13:59:29.566Z,4.47
2022-11-26T14:01:56.551Z,4.07
2022-11-26T14:04:23.241Z,5.63
2022-11-26T14:07:05.150Z,6.00
2022-11-26T14:09:56.241Z,5.80
2022-11-26T14:12:43.886Z,5.15
2022-11-26T14:15:41.751Z,5.90
2022-11-26T14:18:10.336Z,6.35
2022-11-26T14:21:02.200Z,5.07
2022-11-26T14:23:40.905Z,5.43
2022-11-26T14:26:10.417Z,4.47
2022-11-26T14:28:37.174Z,4.00
2022-11-26T14:31:15.905Z,4.78
2022-11-26T14:33:45.143Z,5.65
2022-11-26T14:36:24.509Z,4.05
2022-11-26T14:39:09.593Z,3.85
2022-11-26T14:42:03.783Z,3.70
2022-11-26T14:44:33.354Z,3.38
2022-11-26T14:47:07.682Z,3.25
2022-11-26T14:49:42.584Z,4.05
2022-11-26T14:52:33.438Z,3.72
2022-11-26T14:55:03.739Z,3.55
2022-11-26T14:57:47.801Z,3.50
2022-11-26T15:00:14.774Z,2.78
2022-11-26T15:02:45.647Z,4.90
2022-11-26T15:05:17.844Z,2.78
2022-11-26T15:07:45.986Z,3.00
2022-11-26T15:10:15.925Z,3.30
2022-11-26T15:12:43.667Z,3.42
2022-11-26T15:15:19.208Z,3.25
2022-11-26T15:17:53.209Z,3.22
2022-11-26T15:20:20.670Z,3.20
2022-11-26T15:22:53.874Z,3.05
2022-11-26T15:25:22.205Z,2.80
2022-11-26T15:28:01.475Z,2.80
2022-11-26T15:30:29.827Z,2.50
2022-11-26T15:32:57.752Z,2.67
2022-11-26T15:35:24.712Z,2.90
2022-11-26T15:37:51.454Z,2.80
2022-11-26T15:40:48.825Z,3.03
2022-11-26T15:43:43.118Z,3.85
2022-11-26T15:46:26.888Z,2.78
2022-11-26T15:49:00.417Z,2.95
2022-11-26T15:51:51.767Z,2.92
2022-11-26T15:54:49.630Z,3.25
2022-11-26T15:57:36.133Z,3.70
2022-11-26T16:00:22.094Z,3.50
2022-11-26T16:02:49.112Z,3.17
2022-11-26T16:05:39.195Z,3.95
2022-11-26T16:08:24.122Z,4.20
2022-11-26T16:11:02.988Z,4.60
2022-11-26T16:13:34.682Z,5.47
2022-11-26T16:16:04.486Z,5.63
2022-11-26T16:18:54.151Z,5.68
2022-11-26T16:21:25.398Z,5.70
2022-11-26T16:24:05.687Z,7.82
2022-11-26T16:26:57.576Z,6.32
2022-11-26T16:29:25.999Z,7.18
2022-11-26T16:31:52.839Z,8.00
2022-11-26T16:36:47.478Z,8.38
2022-11-26T16:39:16.714Z,9.27
2022-11-26T16:41:43.780Z,8.93
2022-11-26T16:44:13.727Z,9.35
2022-11-26T16:46:41.193Z,13.02
2022-11-26T16:49:09.841Z,9.82
2022-11-26T16:51:36.587Z,11.10
2022-11-26T16:56:38.127Z,13.68
2022-11-26T16:59:23.862Z,9.68
2022-11-26T17:01:50.891Z,9.43
2022-11-26T17:06:45.935Z,9.82
2022-11-26T17:09:20.485Z,11.95
2022-11-26T17:11:47.304Z,8.23
2022-11-26T17:16:40.978Z,7.38
2022-11-26T17:19:15.059Z,6.72
2022-11-26T17:21:41.926Z,6.57
2022-11-26T17:24:08.767Z,6.72
2022-11-26T17:29:02.215Z,6.25
2022-11-26T17:33:56.840Z,6.43
2022-11-26T17:36:23.623Z,6.20
2022-11-26T17:41:17.582Z,5.25
2022-11-26T17:43:44.350Z,4.97
2022-11-26T17:48:46.369Z,7.68
2022-11-26T17:51:14.410Z,5.60
2022-11-26T17:53:43.228Z,5.97
2022-11-26T17:56:22.131Z,5.85
2022-11-26T17:58:49.469Z,6.00
2022-11-26T18:01:17.063Z,4.93
2022-11-26T18:03:44.452Z,6.03
2022-11-26T18:06:15.805Z,4.90
2022-11-26T18:08:42.616Z,5.65
2022-11-26T18:11:11.961Z,5.07
2022-11-26T18:13:38.724Z,6.03
2022-11-26T18:18:32.126Z,5.75
2022-11-26T18:23:25.645Z,5.45
2022-11-26T18:28:19.050Z,5.97
2022-11-26T18:30:45.939Z,5.57
2022-11-26T18:33:16.184Z,5.57
2022-11-26T18:35:42.981Z,6.07
2022-11-26T18:40:38.397Z,4.95
2022-11-26T18:43:05.223Z,5.00
2022-11-26T18:45:32.563Z,5.43
2022-11-26T18:48:00.263Z,5.13
2022-11-26T18:50:27.267Z,6.05
2022-11-26T18:52:55.973Z,6.13
2022-11-26T18:55:22.655Z,5.90
2022-11-26T18:57:49.329Z,6.97
2022-11-26T19:02:43.060Z,5.05
2022-11-26T19:05:09.940Z,5.72
2022-11-26T19:10:04.194Z,5.90
2022-11-26T19:12:31.033Z,5.82
2022-11-26T19:14:57.789Z,6.22
2022-11-26T19:19:51.060Z,7.13
2022-11-26T19:22:17.966Z,5.97
2022-11-26T19:24:44.699Z,5.85
2022-11-26T19:29:40.514Z,5.10
2022-11-26T19:32:07.273Z,5.82
2022-11-26T19:34:34.221Z,5.18
2022-11-26T19:37:00.915Z,5.50
2022-11-26T19:41:55.198Z,5.85
2022-11-26T19:44:21.955Z,6.07
2022-11-26T19:49:15.637Z,5.20
2022-11-26T19:51:42.611Z,5.60
2022-11-26T19:54:10.286Z,5.88
2022-11-26T19:56:37.987Z,4.88
2022-11-26T19:59:05.431Z,5.13
2022-11-26T20:01:34.225Z,5.57
2022-11-26T20:04:04.185Z,5.28
2022-11-26T20:06:32.580Z,6.32
2022-11-26T20:08:59.465Z,5.53
2022-11-26T20:11:27.710Z,5.05
2022-11-26T20:13:55.346Z,5.18
2022-11-26T20:16:24.843Z,4.28
2022-11-26T20:18:52.224Z,4.32
2022-11-26T20:21:27.476Z,5.32
2022-11-26T20:23:57.117Z,5.68
2022-11-26T20:26:27.807Z,5.97
2022-11-26T20:28:55.172Z,5.13
2022-11-26T20:31:24.280Z,5.18
2022-11-26T20:33:55.014Z,4.72
2022-11-26T20:36:23.286Z,4.93
2022-11-26T20:38:54.938Z,4.90
2022-11-26T20:41:23.809Z,4.18
2022-11-26T20:43:55.106Z,4.88
2022-11-26T20:46:25.819Z,4.70
2022-11-26T20:48:52.938Z,4.25
2022-11-26T20:51:21.690Z,5.50
2022-11-26T20:53:51.672Z,5.38
2022-11-26T20:56:20.867Z,5.07
2022-11-26T20:58:48.020Z,6.00
2022-11-26T21:01:21.201Z,5.00
2022-11-26T21:03:48.348Z,5.00
2022-11-26T21:06:17.286Z,4.50
2022-11-26T21:08:44.208Z,4.63
2022-11-26T21:11:11.991Z,4.32
2022-11-26T21:13:39.937Z,4.57
2022-11-26T21:16:09.697Z,5.00
2022-11-26T21:18:36.596Z,4.63
2022-11-26T21:21:11.403Z,4.38
2022-11-26T21:23:39.564Z,5.75
2022-11-26T21:26:08.275Z,5.20
2022-11-26T21:28:35.398Z,4.20
2022-11-26T21:31:06.463Z,4.03
2022-11-26T21:33:33.256Z,4.65
2022-11-26T21:38:33.688Z,3.95
2022-11-26T21:41:07.533Z,4.80
2022-11-26T21:43:34.449Z,4.82
2022-11-26T21:46:02.897Z,4.95
2022-11-26T21:48:30.085Z,3.85
2022-11-26T21:50:56.812Z,4.97
2022-11-26T21:55:50.298Z,4.72
2022-11-26T22:00:43.555Z,4.57
2022-11-26T22:05:41.832Z,5.15
2022-11-26T22:08:08.766Z,5.20
2022-11-26T22:10:36.555Z,4.43
2022-11-26T22:13:03.428Z,3.90
2022-11-26T22:17:57.059Z,4.28
2022-11-26T22:20:23.777Z,3.92
2022-11-26T22:25:17.168Z,3.28
2022-11-26T22:30:10.878Z,3.63
2022-11-26T22:32:37.653Z,4.40
2022-11-26T22:37:31.069Z,3.92
2022-11-26T22:42:24.511Z,4.18
2022-11-26T22:44:51.284Z,5.13
2022-11-26T22:47:18.027Z,4.68
2022-11-26T22:52:11.375Z,5.53
2022-11-26T22:54:37.988Z,4.88
2022-11-26T22:59:31.548Z,4.53
2022-11-26T23:01:58.273Z,4.47
2022-11-26T23:06:51.633Z,4.10
2022-11-26T23:11:45.820Z,4.90
2022-11-26T23:14:12.764Z,4.43
2022-11-26T23:16:41.666Z,4.13
2022-11-26T23:19:09.073Z,5.63
2022-11-26T23:21:39.709Z,4.10
2022-11-26T23:24:07.468Z,5.03
2022-11-26T23:26:35.309Z,4.80
2022-11-26T23:29:03.426Z,4.30
2022-11-26T23:31:40.072Z,4.40
2022-11-26T23:34:08.354Z,4.18
2022-11-26T23:36:36.471Z,3.58
2022-11-26T23:39:05.524Z,3.55
2022-11-26T23:41:32.304Z,5.82
2022-11-26T23:46:28.317Z,4.13
2022-11-26T23:48:55.459Z,5.07
2022-11-26T23:51:30.050Z,4.85
2022-11-26T23:53:57.051Z,5.03
2022-11-26T23:56:29.764Z,4.38
2022-11-26T23:58:59.669Z,4.30
